sensor_id;sensor_type;location;lat;lon;timestamp;P1;durP1;ratioP1;P2;durP2;ratioP2
7729;SDS011;3908;52.310;7.230;2023-11-18T00:00:31;21.67;;;16.13;;
7729;SDS011;3908;52.310;7.230;2023-11-18T00:03:18;19.53;;;17.07;;
7729;SDS011;3908;52.310;7.230;2023-11-18T00:06:06;26.33;;;16.30;;
7729;SDS011;3908;52.310;7.230;2023-11-18T00:08:57;22.17;;;17.37;;
7729;SDS011;3908;52.310;7.230;2023-11-18T00:11:44;26.73;;;16.07;;
7729;SDS011;3908;52.310;7.230;2023-11-18T00:14:31;29.90;;;16.77;;
7729;SDS011;3908;52.310;7.230;2023-11-18T00:17:20;36.57;;;18.70;;
7729;SDS011;3908;52.310;7.230;2023-11-18T00:20:10;19.60;;;17.33;;
7729;SDS011;3908;52.310;7.230;2023-11-18T00:23:00;37.23;;;19.00;;
7729;SDS011;3908;52.310;7.230;2023-11-18T00:25:50;20.73;;;17.53;;
7729;SDS011;3908;52.310;7.230;2023-11-18T00:28:38;22.67;;;16.10;;
7729;SDS011;3908;52.310;7.230;2023-11-18T00:31:24;23.33;;;15.80;;
7729;SDS011;3908;52.310;7.230;2023-11-18T00:34:15;37.83;;;15.93;;
7729;SDS011;3908;52.310;7.230;2023-11-18T00:37:01;35.13;;;17.40;;
7729;SDS011;3908;52.310;7.230;2023-11-18T00:39:50;18.97;;;14.13;;
7729;SDS011;3908;52.310;7.230;2023-11-18T00:42:37;21.10;;;15.80;;
7729;SDS011;3908;52.310;7.230;2023-11-18T00:45:24;33.80;;;16.43;;
7729;SDS011;3908;52.310;7.230;2023-11-18T00:48:14;61.50;;;15.83;;
7729;SDS011;3908;52.310;7.230;2023-11-18T00:51:01;18.60;;;13.87;;
7729;SDS011;3908;52.310;7.230;2023-11-18T00:53:47;20.00;;;15.47;;
7729;SDS011;3908;52.310;7.230;2023-11-18T00:56:35;20.10;;;16.13;;
7729;SDS011;3908;52.310;7.230;2023-11-18T00:59:22;26.30;;;17.07;;
7729;SDS011;3908;52.310;7.230;2023-11-18T01:02:09;24.67;;;17.43;;
7729;SDS011;3908;52.310;7.230;2023-11-18T01:04:56;24.40;;;19.00;;
7729;SDS011;3908;52.310;7.230;2023-11-18T01:07:42;22.20;;;17.77;;
7729;SDS011;3908;52.310;7.230;2023-11-18T01:10:29;48.57;;;17.70;;
7729;SDS011;3908;52.310;7.230;2023-11-18T01:13:18;25.33;;;16.47;;
7729;SDS011;3908;52.310;7.230;2023-11-18T01:16:05;30.27;;;15.67;;
7729;SDS011;3908;52.310;7.230;2023-11-18T01:18:51;27.90;;;16.10;;
7729;SDS011;3908;52.310;7.230;2023-11-18T01:21:39;25.43;;;15.27;;
7729;SDS011;3908;52.310;7.230;2023-11-18T01:24:30;29.73;;;14.93;;
7729;SDS011;3908;52.310;7.230;2023-11-18T01:27:17;42.33;;;14.93;;
7729;SDS011;3908;52.310;7.230;2023-11-18T01:30:11;19.87;;;13.90;;
7729;SDS011;3908;52.310;7.230;2023-11-18T01:32:58;33.93;;;14.70;;
7729;SDS011;3908;52.310;7.230;2023-11-18T01:35:49;25.30;;;14.67;;
7729;SDS011;3908;52.310;7.230;2023-11-18T01:38:36;32.57;;;14.13;;
7729;SDS011;3908;52.310;7.230;2023-11-18T01:41:23;24.60;;;14.33;;
7729;SDS011;3908;52.310;7.230;2023-11-18T01:44:10;20.87;;;13.10;;
7729;SDS011;3908;52.310;7.230;2023-11-18T01:47:00;27.17;;;14.10;;
7729;SDS011;3908;52.310;7.230;2023-11-18T01:49:48;22.97;;;14.83;;
7729;SDS011;3908;52.310;7.230;2023-11-18T01:52:35;24.13;;;14.37;;
7729;SDS011;3908;52.310;7.230;2023-11-18T01:55:22;27.10;;;15.60;;
7729;SDS011;3908;52.310;7.230;2023-11-18T01:58:09;24.73;;;16.10;;
7729;SDS011;3908;52.310;7.230;2023-11-18T02:00:56;26.30;;;15.10;;
7729;SDS011;3908;52.310;7.230;2023-11-18T02:03:44;25.03;;;15.00;;
7729;SDS011;3908;52.310;7.230;2023-11-18T02:06:32;27.00;;;15.47;;
7729;SDS011;3908;52.310;7.230;2023-11-18T02:09:19;21.20;;;14.37;;
7729;SDS011;3908;52.310;7.230;2023-11-18T02:12:16;21.67;;;14.47;;
7729;SDS011;3908;52.310;7.230;2023-11-18T02:15:06;21.80;;;14.27;;
7729;SDS011;3908;52.310;7.230;2023-11-18T02:17:55;22.87;;;13.83;;
7729;SDS011;3908;52.310;7.230;2023-11-18T02:20:45;17.77;;;12.03;;
7729;SDS011;3908;52.310;7.230;2023-11-18T02:23:36;25.20;;;12.80;;
7729;SDS011;3908;52.310;7.230;2023-11-18T02:26:25;26.20;;;13.60;;
7729;SDS011;3908;52.310;7.230;2023-11-18T02:29:15;26.20;;;13.63;;
7729;SDS011;3908;52.310;7.230;2023-11-18T02:32:03;20.73;;;13.07;;
7729;SDS011;3908;52.310;7.230;2023-11-18T02:34:51;24.07;;;13.60;;
7729;SDS011;3908;52.310;7.230;2023-11-18T02:37:43;23.07;;;13.10;;
7729;SDS011;3908;52.310;7.230;2023-11-18T02:40:32;23.20;;;13.60;;
7729;SDS011;3908;52.310;7.230;2023-11-18T02:43:21;26.13;;;13.27;;
7729;SDS011;3908;52.310;7.230;2023-11-18T02:46:09;25.00;;;14.40;;
7729;SDS011;3908;52.310;7.230;2023-11-18T02:49:01;26.67;;;14.07;;
7729;SDS011;3908;52.310;7.230;2023-11-18T02:51:48;27.60;;;13.63;;
7729;SDS011;3908;52.310;7.230;2023-11-18T02:54:38;29.37;;;13.93;;
7729;SDS011;3908;52.310;7.230;2023-11-18T02:57:25;25.47;;;13.47;;
7729;SDS011;3908;52.310;7.230;2023-11-18T03:00:17;28.17;;;14.67;;
7729;SDS011;3908;52.310;7.230;2023-11-18T03:03:07;25.53;;;14.57;;
7729;SDS011;3908;52.310;7.230;2023-11-18T03:05:53;33.37;;;14.47;;
7729;SDS011;3908;52.310;7.230;2023-11-18T03:08:40;31.57;;;16.37;;
7729;SDS011;3908;52.310;7.230;2023-11-18T03:11:27;23.73;;;14.40;;
7729;SDS011;3908;52.310;7.230;2023-11-18T03:14:15;22.00;;;11.83;;
7729;SDS011;3908;52.310;7.230;2023-11-18T03:17:04;23.03;;;13.27;;
7729;SDS011;3908;52.310;7.230;2023-11-18T03:19:51;29.30;;;14.43;;
7729;SDS011;3908;52.310;7.230;2023-11-18T03:22:38;29.93;;;12.73;;
7729;SDS011;3908;52.310;7.230;2023-11-18T03:25:28;23.30;;;13.17;;
7729;SDS011;3908;52.310;7.230;2023-11-18T03:28:18;29.77;;;14.67;;
7729;SDS011;3908;52.310;7.230;2023-11-18T03:31:05;26.90;;;13.17;;
7729;SDS011;3908;52.310;7.230;2023-11-18T03:33:54;25.93;;;12.70;;
7729;SDS011;3908;52.310;7.230;2023-11-18T03:36:40;28.70;;;12.77;;
7729;SDS011;3908;52.310;7.230;2023-11-18T03:39:30;26.00;;;12.93;;
7729;SDS011;3908;52.310;7.230;2023-11-18T03:42:17;30.00;;;14.37;;
7729;SDS011;3908;52.310;7.230;2023-11-18T03:45:07;24.20;;;12.77;;
7729;SDS011;3908;52.310;7.230;2023-11-18T03:47:54;24.50;;;12.60;;
7729;SDS011;3908;52.310;7.230;2023-11-18T03:50:43;25.27;;;12.33;;
7729;SDS011;3908;52.310;7.230;2023-11-18T03:53:33;23.47;;;12.63;;
7729;SDS011;3908;52.310;7.230;2023-11-18T03:56:20;23.10;;;12.43;;
7729;SDS011;3908;52.310;7.230;2023-11-18T03:59:10;26.70;;;11.90;;
7729;SDS011;3908;52.310;7.230;2023-11-18T04:01:57;22.23;;;10.90;;
7729;SDS011;3908;52.310;7.230;2023-11-18T04:04:43;16.30;;;10.80;;
7729;SDS011;3908;52.310;7.230;2023-11-18T04:07:32;20.73;;;12.20;;
7729;SDS011;3908;52.310;7.230;2023-11-18T04:10:18;22.37;;;11.87;;
7729;SDS011;3908;52.310;7.230;2023-11-18T04:13:06;23.80;;;10.83;;
7729;SDS011;3908;52.310;7.230;2023-11-18T04:15:52;24.67;;;12.27;;
7729;SDS011;3908;52.310;7.230;2023-11-18T04:18:39;23.27;;;12.07;;
7729;SDS011;3908;52.310;7.230;2023-11-18T04:21:27;23.30;;;12.40;;
7729;SDS011;3908;52.310;7.230;2023-11-18T04:24:15;29.97;;;13.50;;
7729;SDS011;3908;52.310;7.230;2023-11-18T04:27:02;20.43;;;12.03;;
7729;SDS011;3908;52.310;7.230;2023-11-18T04:29:48;22.27;;;11.90;;
7729;SDS011;3908;52.310;7.230;2023-11-18T04:32:36;20.60;;;11.97;;
7729;SDS011;3908;52.310;7.230;2023-11-18T04:35:22;20.67;;;11.70;;
7729;SDS011;3908;52.310;7.230;2023-11-18T04:38:09;22.13;;;11.10;;
7729;SDS011;3908;52.310;7.230;2023-11-18T04:40:58;21.63;;;12.53;;
7729;SDS011;3908;52.310;7.230;2023-11-18T04:43:44;20.77;;;10.60;;
7729;SDS011;3908;52.310;7.230;2023-11-18T04:46:32;23.67;;;11.33;;
7729;SDS011;3908;52.310;7.230;2023-11-18T04:49:20;24.63;;;12.23;;
7729;SDS011;3908;52.310;7.230;2023-11-18T04:52:07;23.40;;;11.60;;
7729;SDS011;3908;52.310;7.230;2023-11-18T04:54:53;20.83;;;11.27;;
7729;SDS011;3908;52.310;7.230;2023-11-18T04:57:42;22.10;;;11.97;;
7729;SDS011;3908;52.310;7.230;2023-11-18T05:00:28;19.07;;;11.73;;
7729;SDS011;3908;52.310;7.230;2023-11-18T05:03:18;22.77;;;12.67;;
7729;SDS011;3908;52.310;7.230;2023-11-18T05:06:05;21.23;;;12.70;;
7729;SDS011;3908;52.310;7.230;2023-11-18T05:08:56;25.63;;;13.70;;
7729;SDS011;3908;52.310;7.230;2023-11-18T05:11:42;22.00;;;13.80;;
7729;SDS011;3908;52.310;7.230;2023-11-18T05:14:31;22.20;;;12.53;;
7729;SDS011;3908;52.310;7.230;2023-11-18T05:17:18;25.77;;;12.53;;
7729;SDS011;3908;52.310;7.230;2023-11-18T05:20:05;25.90;;;13.57;;
7729;SDS011;3908;52.310;7.230;2023-11-18T05:22:55;23.80;;;12.93;;
7729;SDS011;3908;52.310;7.230;2023-11-18T05:25:42;18.43;;;13.40;;
7729;SDS011;3908;52.310;7.230;2023-11-18T05:28:29;21.40;;;13.50;;
7729;SDS011;3908;52.310;7.230;2023-11-18T05:31:17;24.20;;;13.80;;
7729;SDS011;3908;52.310;7.230;2023-11-18T05:34:04;20.73;;;13.60;;
7729;SDS011;3908;52.310;7.230;2023-11-18T05:36:51;21.83;;;14.57;;
7729;SDS011;3908;52.310;7.230;2023-11-18T05:39:39;23.33;;;13.93;;
7729;SDS011;3908;52.310;7.230;2023-11-18T05:42:29;21.03;;;14.57;;
7729;SDS011;3908;52.310;7.230;2023-11-18T05:45:16;24.90;;;15.43;;
7729;SDS011;3908;52.310;7.230;2023-11-18T05:48:14;23.57;;;16.47;;
7729;SDS011;3908;52.310;7.230;2023-11-18T05:51:01;22.60;;;15.67;;
7729;SDS011;3908;52.310;7.230;2023-11-18T05:53:48;22.43;;;16.43;;
7729;SDS011;3908;52.310;7.230;2023-11-18T05:56:35;19.57;;;14.37;;
7729;SDS011;3908;52.310;7.230;2023-11-18T05:59:21;23.87;;;15.80;;
7729;SDS011;3908;52.310;7.230;2023-11-18T06:02:09;24.60;;;14.67;;
7729;SDS011;3908;52.310;7.230;2023-11-18T06:04:59;27.23;;;15.70;;
7729;SDS011;3908;52.310;7.230;2023-11-18T06:07:49;20.17;;;15.63;;
7729;SDS011;3908;52.310;7.230;2023-11-18T06:10:36;24.07;;;16.43;;
7729;SDS011;3908;52.310;7.230;2023-11-18T06:13:24;24.53;;;15.97;;
7729;SDS011;3908;52.310;7.230;2023-11-18T06:16:13;25.33;;;17.27;;
7729;SDS011;3908;52.310;7.230;2023-11-18T06:19:00;26.03;;;16.40;;
7729;SDS011;3908;52.310;7.230;2023-11-18T06:21:51;24.30;;;16.40;;
7729;SDS011;3908;52.310;7.230;2023-11-18T06:24:38;31.10;;;16.40;;
7729;SDS011;3908;52.310;7.230;2023-11-18T06:27:25;25.53;;;16.63;;
7729;SDS011;3908;52.310;7.230;2023-11-18T06:30:12;31.73;;;17.10;;
7729;SDS011;3908;52.310;7.230;2023-11-18T06:33:01;23.80;;;17.47;;
7729;SDS011;3908;52.310;7.230;2023-11-18T06:35:48;29.30;;;19.33;;
7729;SDS011;3908;52.310;7.230;2023-11-18T06:38:36;26.73;;;17.50;;
7729;SDS011;3908;52.310;7.230;2023-11-18T06:41:23;25.80;;;16.07;;
7729;SDS011;3908;52.310;7.230;2023-11-18T06:44:11;27.30;;;16.53;;
7729;SDS011;3908;52.310;7.230;2023-11-18T06:47:03;33.33;;;17.07;;
7729;SDS011;3908;52.310;7.230;2023-11-18T06:49:51;31.70;;;17.97;;
7729;SDS011;3908;52.310;7.230;2023-11-18T06:52:38;29.23;;;16.53;;
7729;SDS011;3908;52.310;7.230;2023-11-18T06:55:28;25.87;;;17.90;;
7729;SDS011;3908;52.310;7.230;2023-11-18T06:58:15;30.60;;;17.97;;
7729;SDS011;3908;52.310;7.230;2023-11-18T07:01:02;30.93;;;17.30;;
7729;SDS011;3908;52.310;7.230;2023-11-18T07:03:51;26.47;;;16.03;;
7729;SDS011;3908;52.310;7.230;2023-11-18T07:06:38;25.37;;;16.03;;
7729;SDS011;3908;52.310;7.230;2023-11-18T07:09:26;32.00;;;16.80;;
7729;SDS011;3908;52.310;7.230;2023-11-18T07:12:14;29.17;;;17.13;;
7729;SDS011;3908;52.310;7.230;2023-11-18T07:15:01;27.67;;;15.90;;
7729;SDS011;3908;52.310;7.230;2023-11-18T07:17:48;31.87;;;18.50;;
7729;SDS011;3908;52.310;7.230;2023-11-18T07:20:36;29.80;;;18.43;;
7729;SDS011;3908;52.310;7.230;2023-11-18T07:23:23;29.40;;;18.30;;
7729;SDS011;3908;52.310;7.230;2023-11-18T07:26:10;26.73;;;18.20;;
7729;SDS011;3908;52.310;7.230;2023-11-18T07:28:58;33.77;;;21.50;;
7729;SDS011;3908;52.310;7.230;2023-11-18T07:31:44;30.27;;;19.90;;
7729;SDS011;3908;52.310;7.230;2023-11-18T07:34:31;27.20;;;22.80;;
7729;SDS011;3908;52.310;7.230;2023-11-18T07:37:19;33.70;;;25.37;;
7729;SDS011;3908;52.310;7.230;2023-11-18T07:40:07;30.83;;;23.23;;
7729;SDS011;3908;52.310;7.230;2023-11-18T07:42:57;28.73;;;22.07;;
7729;SDS011;3908;52.310;7.230;2023-11-18T07:45:48;28.13;;;22.70;;
7729;SDS011;3908;52.310;7.230;2023-11-18T07:48:37;31.57;;;23.90;;
7729;SDS011;3908;52.310;7.230;2023-11-18T07:51:24;29.67;;;23.30;;
7729;SDS011;3908;52.310;7.230;2023-11-18T07:54:11;29.07;;;25.73;;
7729;SDS011;3908;52.310;7.230;2023-11-18T07:56:58;31.43;;;27.33;;
7729;SDS011;3908;52.310;7.230;2023-11-18T07:59:44;33.80;;;24.47;;
7729;SDS011;3908;52.310;7.230;2023-11-18T08:02:33;30.33;;;24.37;;
7729;SDS011;3908;52.310;7.230;2023-11-18T08:05:21;29.33;;;22.07;;
7729;SDS011;3908;52.310;7.230;2023-11-18T08:08:08;24.10;;;21.03;;
7729;SDS011;3908;52.310;7.230;2023-11-18T08:10:56;33.37;;;20.47;;
7729;SDS011;3908;52.310;7.230;2023-11-18T08:13:43;26.10;;;19.03;;
7729;SDS011;3908;52.310;7.230;2023-11-18T08:16:30;30.33;;;20.30;;
7729;SDS011;3908;52.310;7.230;2023-11-18T08:19:19;24.40;;;18.57;;
7729;SDS011;3908;52.310;7.230;2023-11-18T08:22:07;25.27;;;19.10;;
7729;SDS011;3908;52.310;7.230;2023-11-18T08:24:54;25.70;;;19.30;;
7729;SDS011;3908;52.310;7.230;2023-11-18T08:27:44;29.30;;;19.17;;
7729;SDS011;3908;52.310;7.230;2023-11-18T08:30:31;32.07;;;20.77;;
7729;SDS011;3908;52.310;7.230;2023-11-18T08:33:19;40.03;;;21.43;;
7729;SDS011;3908;52.310;7.230;2023-11-18T08:36:08;27.63;;;21.90;;
7729;SDS011;3908;52.310;7.230;2023-11-18T08:38:57;26.93;;;22.10;;
7729;SDS011;3908;52.310;7.230;2023-11-18T08:41:45;29.63;;;21.80;;
7729;SDS011;3908;52.310;7.230;2023-11-18T08:44:34;30.47;;;21.33;;
7729;SDS011;3908;52.310;7.230;2023-11-18T08:47:23;29.77;;;22.43;;
7729;SDS011;3908;52.310;7.230;2023-11-18T08:50:10;28.57;;;21.87;;
7729;SDS011;3908;52.310;7.230;2023-11-18T08:53:03;31.73;;;27.10;;
7729;SDS011;3908;52.310;7.230;2023-11-18T08:55:50;26.73;;;23.17;;
7729;SDS011;3908;52.310;7.230;2023-11-18T08:58:40;29.30;;;24.20;;
7729;SDS011;3908;52.310;7.230;2023-11-18T09:01:27;30.63;;;25.17;;
7729;SDS011;3908;52.310;7.230;2023-11-18T09:04:17;32.03;;;25.20;;
7729;SDS011;3908;52.310;7.230;2023-11-18T09:07:06;27.07;;;24.00;;
7729;SDS011;3908;52.310;7.230;2023-11-18T09:09:56;32.90;;;24.70;;
7729;SDS011;3908;52.310;7.230;2023-11-18T09:12:43;31.30;;;27.90;;
7729;SDS011;3908;52.310;7.230;2023-11-18T09:15:30;32.20;;;27.40;;
7729;SDS011;3908;52.310;7.230;2023-11-18T09:18:17;30.60;;;27.00;;
7729;SDS011;3908;52.310;7.230;2023-11-18T09:21:05;35.23;;;27.10;;
7729;SDS011;3908;52.310;7.230;2023-11-18T09:23:52;34.97;;;31.27;;
7729;SDS011;3908;52.310;7.230;2023-11-18T09:26:43;35.47;;;31.70;;
7729;SDS011;3908;52.310;7.230;2023-11-18T09:29:33;33.90;;;29.27;;
7729;SDS011;3908;52.310;7.230;2023-11-18T09:32:23;33.73;;;30.47;;
7729;SDS011;3908;52.310;7.230;2023-11-18T09:35:11;30.03;;;26.97;;
7729;SDS011;3908;52.310;7.230;2023-11-18T09:38:01;35.07;;;28.47;;
7729;SDS011;3908;52.310;7.230;2023-11-18T09:40:51;36.63;;;29.47;;
